Jump to content


DELTA AIRLINES FLIGHT DL620 FLOWN ON 01-16-2018 BY CAPTAIN JIM BOERMAN

Pilot StatsCaptain Jim Boerman (LDP136) • 4,917.8 total hours • 1,480 total flights [View Logbook]
FLIGHT DETAILS
StatusReceived and approved on 2018-01-15 at 22:01:38
Origin AirportFiumicino (LIRF) • Rome, Italy (14 feet MSL)
Filed Flight PlanLIRF RAVAL UM729 ELB UM616 LERGA UT183 FOUCO UN460 CNA UN470 KOLEK UN480 XIDAN UN535 UMOXA UN734 UMLER BEDRA NATA CARAC N25A ALLEX Q822 CAM Q84 PAYGE Q822 PUPPY Q84 JHW J554 GIJ J146 JOT J18 ALBRT J64 TBC J128 RUSTT J4 CIVET J64 JUGLI KLAX
Destination AirportLos Angeles Intl (KLAX) • Los Angeles, California, United States (126 feet MSL)
Alternate AirportOntario Intl (KONT) • Ontario, California, United States (944 feet MSL)
AirlineDelta Airlines
AircraftBoeing 777-200LR (77L / B777-200LR)
FS Aircraft UsedPMDG 777-232LR Delta Air Lines
Cruising AltitudeFL340
Distance Flown5,509 nautical miles
Passengers Onboard205 passengers (68.11% full)
DEPARTURE DETAILS
Time Out14:49:56
Taxi Data620,697 lbs total with 217,673 lbs of fuel onboard
Takeoff Data15:07:17 (17 minutes after leaving gate/ramp) • 618,280 lbs total • 9° pitch at 179 knots
Departure METARLIRF 151220Z VRB05KT 9999 SCT025 14/08 Q1022 NOSIG
ARRIVAL DETAILS
Landing Data19:34:18 • 417,624 lbs total • 4° pitch doing 128 knots at a rate of -356.79 feet/minute with 13,504 lbs of fuel onboard
Time In19:47:37 (13 minutes after landing)
Ramp Weight416,528 lbs total
Total Fuel Used204,169 lbs
Total Block Time13:57:39 (14 hours) while 31 minutes were spent on the ground
Arrival METARKLAX 160253Z VRB03KT 8SM BKN200 16/13 A3007 RMK AO2 SLP183 T01560133 55009
MISCELLANEOUS DETAILS
LiveDISPATCH Version4.8.3.1
FS Version
FSUIPC Version5.12
OS VersionWindows 7 32-bit
Screen Resolution1920 x 1080
Pilot's CommentsNo Comments Reported
FLIGHT MAP